createdAt,value
2022-09-11T04:00:47.247Z,100710.00
2022-09-11T04:03:16.916Z,100739.00
2022-09-11T04:05:57.548Z,100738.00
2022-09-11T04:08:25.536Z,100734.00
2022-09-11T04:10:58.370Z,100735.00
2022-09-11T04:13:29.170Z,100740.00
2022-09-11T04:16:03.049Z,100741.00
2022-09-11T04:18:32.403Z,100747.00
2022-09-11T04:21:00.402Z,100749.00
2022-09-11T04:23:28.378Z,100754.00
2022-09-11T04:25:56.405Z,100739.00
2022-09-11T04:28:24.496Z,100747.00
2022-09-11T04:30:52.468Z,100750.00
2022-09-11T04:33:21.907Z,100751.00
2022-09-11T04:35:50.160Z,100753.00
2022-09-11T04:38:18.727Z,100752.00
2022-09-11T04:40:46.713Z,100752.00
2022-09-11T04:43:16.050Z,100756.00
2022-09-11T04:45:44.121Z,100760.00
2022-09-11T04:48:12.177Z,100748.00
2022-09-11T04:50:41.539Z,100740.00
2022-09-11T04:53:09.815Z,100745.00
2022-09-11T04:55:37.815Z,100754.00
2022-09-11T04:58:05.884Z,100757.00
2022-09-11T05:00:35.208Z,100757.00
2022-09-11T05:03:03.470Z,100759.00
2022-09-11T05:05:31.509Z,100774.00
2022-09-11T05:08:00.881Z,100771.00
2022-09-11T05:10:28.868Z,100769.00
2022-09-11T05:12:56.919Z,100767.00
2022-09-11T05:15:24.942Z,100774.00
2022-09-11T05:17:53.113Z,100770.00
2022-09-11T05:20:21.095Z,100772.00
2022-09-11T05:22:49.374Z,100768.00
2022-09-11T05:25:19.171Z,100777.00
2022-09-11T05:27:47.456Z,100775.00
2022-09-11T05:30:15.674Z,100771.00
2022-09-11T05:32:43.676Z,100767.00
2022-09-11T05:35:11.760Z,100772.00
2022-09-11T05:37:39.663Z,100778.00
2022-09-11T05:40:09.220Z,100782.00
2022-09-11T05:42:38.651Z,100793.00
2022-09-11T05:45:08.261Z,100796.00
2022-09-11T05:47:36.305Z,100800.00
2022-09-11T05:50:04.399Z,100804.00
2022-09-11T05:52:34.852Z,100804.00
2022-09-11T05:55:03.303Z,100819.00
2022-09-11T05:57:31.319Z,100819.00
2022-09-11T06:00:00.713Z,100811.00
2022-09-11T06:02:28.681Z,100826.00
2022-09-11T06:04:56.716Z,100833.00
2022-09-11T06:07:25.032Z,100838.00
2022-09-11T06:09:53.141Z,100835.00
2022-09-11T06:12:21.131Z,100844.00
2022-09-11T06:14:49.147Z,100850.00
2022-09-11T06:17:18.477Z,100859.00
2022-09-11T06:19:46.479Z,100860.00
2022-09-11T06:22:14.698Z,100857.00
2022-09-11T06:24:43.043Z,100856.00
2022-09-11T06:27:11.315Z,100862.00
2022-09-11T06:29:39.360Z,100863.00
2022-09-11T06:32:07.732Z,100865.00
2022-09-11T06:34:37.706Z,100867.00
2022-09-11T06:37:05.824Z,100861.00
2022-09-11T06:39:34.958Z,100868.00
2022-09-11T06:42:03.400Z,100871.00
2022-09-11T06:44:31.421Z,100878.00
2022-09-11T06:46:59.439Z,100881.00
2022-09-11T06:49:27.675Z,100886.00
2022-09-11T06:51:57.049Z,100880.00
2022-09-11T06:54:25.009Z,100882.00
2022-09-11T06:56:52.972Z,100883.00
2022-09-11T06:59:23.794Z,100891.00
2022-09-11T07:01:52.561Z,100879.00
2022-09-11T07:04:20.651Z,100882.00
2022-09-11T07:06:48.602Z,100880.00
2022-09-11T07:09:18.074Z,100882.00
2022-09-11T07:11:46.793Z,100887.00
2022-09-11T07:14:14.847Z,100883.00
2022-09-11T07:16:42.888Z,100883.00
2022-09-11T07:19:11.170Z,100895.00
2022-09-11T07:21:39.763Z,100881.00
2022-09-11T07:24:10.091Z,100882.00
2022-09-11T07:26:39.886Z,100885.00
2022-09-11T07:29:08.014Z,100891.00
2022-09-11T07:31:39.409Z,100891.00
2022-09-11T07:34:07.417Z,100882.00
2022-09-11T07:36:37.430Z,100874.00
2022-09-11T07:39:05.717Z,100884.00
2022-09-11T07:41:34.677Z,100893.00
2022-09-11T07:44:06.020Z,100893.00
2022-09-11T07:46:34.210Z,100894.00
2022-09-11T07:49:02.886Z,100892.00
2022-09-11T07:51:31.004Z,100900.00
2022-09-11T07:54:00.022Z,100892.00
2022-09-11T07:56:29.289Z,100895.00
2022-09-11T07:58:58.201Z,100902.00
2022-09-11T08:01:30.581Z,100905.00
2022-09-11T08:04:01.435Z,100905.00
2022-09-11T08:06:32.012Z,100904.00
2022-09-11T08:09:03.697Z,100901.00
2022-09-11T08:11:36.185Z,100914.00
2022-09-11T08:14:04.998Z,100913.00
2022-09-11T08:16:36.099Z,100919.00
2022-09-11T08:19:05.212Z,100913.00
2022-09-11T08:21:34.450Z,100924.00
2022-09-11T08:24:03.963Z,100922.00
2022-09-11T08:26:32.097Z,100928.00
2022-09-11T08:29:01.887Z,100928.00
2022-09-11T08:31:30.284Z,100927.00
2022-09-11T08:33:59.660Z,100940.00
2022-09-11T08:36:28.584Z,100946.00
2022-09-11T08:38:57.201Z,100927.00
2022-09-11T08:41:36.107Z,100944.00
2022-09-11T08:44:11.817Z,100944.00
2022-09-11T08:46:44.135Z,100931.00
2022-09-11T08:49:22.484Z,100943.00
2022-09-11T08:51:52.051Z,100949.00
2022-09-11T08:54:33.362Z,100946.00
2022-09-11T08:57:16.687Z,100950.00
2022-09-11T09:00:14.258Z,100955.00
2022-09-11T09:03:25.406Z,100946.00
2022-09-11T09:06:06.173Z,100954.00
2022-09-11T09:08:57.379Z,100951.00
2022-09-11T09:11:39.068Z,100954.00
2022-09-11T09:14:42.058Z,100951.00
2022-09-11T09:17:17.095Z,100960.00
2022-09-11T09:19:53.696Z,100966.00
2022-09-11T09:22:30.835Z,100964.00
2022-09-11T09:25:05.904Z,100966.00
2022-09-11T09:27:45.336Z,100974.00
2022-09-11T09:30:18.788Z,100973.00
2022-09-11T09:32:56.129Z,100975.00
2022-09-11T09:35:31.095Z,100973.00
2022-09-11T09:38:00.781Z,100961.00
2022-09-11T09:40:33.629Z,100972.00
2022-09-11T09:43:30.620Z,100978.00
2022-09-11T09:46:16.684Z,100976.00
2022-09-11T09:48:45.137Z,100979.00
2022-09-11T09:51:15.198Z,100971.00
2022-09-11T09:53:51.753Z,100969.00
2022-09-11T09:56:23.641Z,100973.00
2022-09-11T09:59:02.858Z,100969.00
2022-09-11T10:01:50.122Z,100980.00
2022-09-11T10:04:22.704Z,100963.00
2022-09-11T10:06:55.207Z,100978.00
2022-09-11T10:09:29.612Z,100978.00
2022-09-11T10:12:03.677Z,100987.00
2022-09-11T10:14:54.681Z,100979.00
2022-09-11T10:17:33.496Z,100985.00
2022-09-11T10:20:22.933Z,100992.00
2022-09-11T10:22:52.457Z,100995.00
2022-09-11T10:25:26.964Z,100999.00
2022-09-11T10:28:04.143Z,100993.00
2022-09-11T10:30:39.537Z,100989.00
2022-09-11T10:33:21.154Z,100994.00
2022-09-11T10:35:54.233Z,100987.00
2022-09-11T10:38:37.008Z,100998.00
2022-09-11T10:41:19.185Z,101007.00
2022-09-11T10:43:55.861Z,100996.00
2022-09-11T10:46:40.588Z,101002.00
2022-09-11T10:49:18.088Z,101007.00
2022-09-11T10:52:02.538Z,101004.00
2022-09-11T10:54:45.854Z,101003.00
2022-09-11T10:57:25.277Z,101000.00
2022-09-11T11:00:06.709Z,101006.00
2022-09-11T11:02:38.555Z,101002.00
2022-09-11T11:05:13.029Z,100996.00
2022-09-11T11:08:27.707Z,101004.00
2022-09-11T11:11:15.869Z,101002.00
2022-09-11T11:14:13.254Z,101011.00
2022-09-11T11:16:55.236Z,101009.00
2022-09-11T11:19:44.855Z,101010.00
2022-09-11T11:22:34.380Z,101010.00
2022-09-11T11:25:17.693Z,101012.00
2022-09-11T11:28:24.872Z,101008.00
2022-09-11T11:31:10.519Z,100985.00
2022-09-11T11:34:10.390Z,101008.00
2022-09-11T11:36:46.146Z,101005.00
2022-09-11T11:39:25.611Z,101004.00
2022-09-11T11:42:09.643Z,100997.00
2022-09-11T11:44:46.563Z,101005.00
2022-09-11T11:47:25.166Z,101004.00
2022-09-11T11:50:05.860Z,101003.00
2022-09-11T11:52:52.278Z,101010.00
2022-09-11T11:55:26.158Z,101004.00
2022-09-11T11:58:06.872Z,101001.00
2022-09-11T12:00:45.079Z,101010.00
2022-09-11T12:03:23.748Z,101011.00
2022-09-11T12:05:51.965Z,101018.00
2022-09-11T12:08:20.137Z,101016.00
2022-09-11T12:10:58.453Z,101021.00
2022-09-11T12:13:32.387Z,101024.00
2022-09-11T12:16:15.522Z,101017.00
2022-09-11T12:19:15.500Z,101019.00
2022-09-11T12:22:07.638Z,101017.00
2022-09-11T12:24:58.932Z,101015.00
2022-09-11T12:28:11.244Z,101014.00
2022-09-11T12:31:06.138Z,101016.00
2022-09-11T12:33:56.511Z,101014.00
2022-09-11T12:36:51.083Z,101015.00
2022-09-11T12:39:27.572Z,101020.00
2022-09-11T12:42:56.033Z,101022.00
2022-09-11T12:45:38.758Z,101026.00
2022-09-11T12:48:14.218Z,101022.00
2022-09-11T12:50:51.897Z,101026.00
2022-09-11T12:53:27.723Z,101024.00
2022-09-11T12:56:00.750Z,101021.00
2022-09-11T12:58:40.333Z,101018.00
2022-09-11T13:01:18.728Z,101017.00
2022-09-11T13:04:01.797Z,101016.00
2022-09-11T13:06:42.111Z,101013.00
2022-09-11T13:09:23.138Z,101014.00
2022-09-11T13:11:53.409Z,101018.00
2022-09-11T13:14:51.730Z,100979.00
2022-09-11T13:17:30.064Z,101009.00
2022-09-11T13:20:22.524Z,101006.00
2022-09-11T13:22:54.809Z,100999.00
2022-09-11T13:25:27.844Z,101001.00
2022-09-11T13:28:02.246Z,101001.00
2022-09-11T13:30:32.301Z,101001.00
2022-09-11T13:33:08.717Z,100962.00
2022-09-11T13:35:40.166Z,100995.00
2022-09-11T13:38:11.872Z,101000.00
2022-09-11T13:40:47.206Z,100999.00
2022-09-11T13:43:20.748Z,100978.00
2022-09-11T13:45:50.274Z,100996.00
2022-09-11T13:48:22.805Z,101003.00
2022-09-11T13:50:52.601Z,100969.00
2022-09-11T13:53:22.385Z,101006.00
2022-09-11T13:55:50.651Z,101001.00
2022-09-11T13:58:26.091Z,101020.00
2022-09-11T14:00:55.995Z,101014.00
2022-09-11T14:03:28.634Z,101014.00
2022-09-11T14:05:59.646Z,101017.00
2022-09-11T14:08:34.213Z,101010.00
2022-09-11T14:11:11.119Z,101006.00
2022-09-11T14:13:47.019Z,101016.00
2022-09-11T14:16:27.437Z,101016.00
2022-09-11T14:19:02.787Z,101010.00
2022-09-11T14:21:35.299Z,101015.00
2022-09-11T14:24:07.119Z,101019.00
2022-09-11T14:26:42.659Z,101020.00
2022-09-11T14:29:25.461Z,101008.00
2022-09-11T14:31:56.545Z,101018.00
2022-09-11T14:34:28.332Z,101013.00
2022-09-11T14:37:04.136Z,101019.00
2022-09-11T14:39:38.734Z,101015.00
2022-09-11T14:42:10.532Z,101022.00
2022-09-11T14:44:41.279Z,101021.00
2022-09-11T14:47:17.199Z,101021.00
2022-09-11T14:49:45.923Z,101022.00
2022-09-11T14:52:17.176Z,101024.00
2022-09-11T14:54:45.345Z,101025.00
2022-09-11T14:57:20.391Z,101029.00
2022-09-11T14:59:48.967Z,101024.00
2022-09-11T15:02:22.220Z,101025.00
2022-09-11T15:04:51.933Z,101027.00
2022-09-11T15:07:22.432Z,101026.00
2022-09-11T15:09:51.539Z,101025.00
2022-09-11T15:12:20.700Z,101022.00
2022-09-11T15:14:58.069Z,101023.00
2022-09-11T15:17:31.299Z,101024.00
2022-09-11T15:20:00.541Z,101020.00
2022-09-11T15:22:28.788Z,101026.00
2022-09-11T15:24:56.762Z,101025.00
2022-09-11T15:27:25.314Z,101026.00
2022-09-11T15:29:54.363Z,101024.00
2022-09-11T15:32:22.552Z,101029.00
2022-09-11T15:34:52.061Z,101029.00
2022-09-11T15:37:20.009Z,101038.00
2022-09-11T15:39:48.016Z,101044.00
2022-09-11T15:42:15.986Z,101051.00
2022-09-11T15:44:45.987Z,101047.00
2022-09-11T15:47:14.841Z,101049.00
2022-09-11T15:49:46.668Z,101043.00
2022-09-11T15:52:16.433Z,101048.00
2022-09-11T15:54:45.497Z,101044.00
2022-09-11T15:57:13.447Z,101049.00
2022-09-11T15:59:42.764Z,101047.00
2022-09-11T16:02:13.007Z,101052.00
2022-09-11T16:04:41.015Z,101034.00
2022-09-11T16:07:08.987Z,101044.00
2022-09-11T16:09:38.268Z,101040.00
2022-09-11T16:12:06.472Z,101039.00
2022-09-11T16:14:38.384Z,101035.00
2022-09-11T16:17:08.293Z,101040.00
2022-09-11T16:19:38.569Z,101022.00
2022-09-11T16:22:11.314Z,101027.00
2022-09-11T16:24:40.784Z,101028.00
2022-09-11T16:27:11.421Z,101017.00
2022-09-11T16:32:29.309Z,101028.00
2022-09-11T16:34:59.417Z,101027.00
2022-09-11T16:37:28.965Z,101033.00
2022-09-11T16:39:59.196Z,101029.00
2022-09-11T16:42:27.168Z,101030.00
2022-09-11T16:44:55.448Z,101027.00
2022-09-11T16:47:24.244Z,101028.00
2022-09-11T16:50:08.923Z,101031.00
2022-09-11T16:52:37.372Z,101029.00
2022-09-11T16:55:09.809Z,101024.00
2022-09-11T16:57:39.079Z,101020.00
2022-09-11T17:00:09.764Z,101021.00
2022-09-11T17:02:38.334Z,100998.00
2022-09-11T17:05:08.114Z,101030.00
2022-09-11T17:07:36.552Z,101029.00
2022-09-11T17:10:06.834Z,101032.00
2022-09-11T17:12:34.944Z,101033.00
2022-09-11T17:15:03.081Z,101036.00
2022-09-11T17:17:31.246Z,101039.00
2022-09-11T17:19:59.359Z,101039.00
2022-09-11T17:22:29.615Z,101038.00
2022-09-11T17:24:57.520Z,101041.00
2022-09-11T17:27:27.366Z,101046.00
2022-09-11T17:29:55.407Z,101048.00
2022-09-11T17:32:28.267Z,101055.00
2022-09-11T17:34:58.048Z,101050.00
2022-09-11T17:37:26.819Z,101046.00
2022-09-11T17:39:55.345Z,101056.00
2022-09-11T17:42:23.741Z,101041.00
2022-09-11T17:44:53.141Z,101046.00
2022-09-11T17:47:21.433Z,101048.00
2022-09-11T17:49:49.997Z,101050.00
2022-09-11T17:52:20.245Z,101054.00
2022-09-11T17:54:48.936Z,101053.00
2022-09-11T17:57:17.126Z,101057.00
2022-09-11T17:59:45.166Z,101051.00
2022-09-11T18:02:14.978Z,101056.00
2022-09-11T18:04:44.527Z,101052.00
2022-09-11T18:07:12.642Z,101055.00
2022-09-11T18:09:40.703Z,101053.00
2022-09-11T18:12:09.942Z,101048.00
2022-09-11T18:14:38.868Z,101055.00
2022-09-11T18:17:07.570Z,101054.00
2022-09-11T18:19:38.723Z,101060.00
2022-09-11T18:22:09.615Z,101049.00
2022-09-11T18:24:39.853Z,101055.00
2022-09-11T18:27:09.825Z,101051.00
2022-09-11T18:29:39.926Z,101051.00
2022-09-11T18:32:10.130Z,101047.00
2022-09-11T18:34:40.088Z,101046.00
2022-09-11T18:37:08.587Z,101053.00
2022-09-11T18:39:38.312Z,101056.00
2022-09-11T18:42:07.498Z,101057.00
2022-09-11T18:44:35.668Z,101043.00
2022-09-11T18:47:03.755Z,101059.00
2022-09-11T18:49:31.865Z,101059.00
2022-09-11T18:52:01.844Z,101050.00
2022-09-11T18:54:31.426Z,101053.00
2022-09-11T18:57:00.292Z,101081.00
2022-09-11T18:59:28.573Z,101076.00
2022-09-11T19:01:57.083Z,101071.00
2022-09-11T19:04:25.943Z,101064.00
2022-09-11T19:06:53.888Z,101072.00
2022-09-11T19:09:23.784Z,101070.00
2022-09-11T19:11:54.693Z,101075.00
2022-09-11T19:14:22.734Z,101075.00
2022-09-11T19:16:51.709Z,101071.00
2022-09-11T19:19:19.829Z,101076.00
2022-09-11T19:21:48.549Z,101082.00
2022-09-11T19:24:16.576Z,101088.00
2022-09-11T19:26:46.675Z,101090.00
2022-09-11T19:29:15.728Z,101100.00
2022-09-11T19:31:44.027Z,101094.00
2022-09-11T19:34:13.474Z,101091.00
2022-09-11T19:36:42.254Z,101099.00
2022-09-11T19:39:12.221Z,101099.00
2022-09-11T19:41:40.826Z,101092.00
2022-09-11T19:44:13.975Z,101085.00
2022-09-11T19:46:46.010Z,101095.00
2022-09-11T19:49:14.047Z,101088.00
2022-09-11T19:51:44.943Z,101099.00
2022-09-11T19:54:14.810Z,101101.00
2022-09-11T19:56:44.333Z,101101.00
2022-09-11T19:59:14.573Z,101085.00
2022-09-11T20:01:43.304Z,101102.00
2022-09-11T20:04:13.431Z,101108.00
2022-09-11T20:06:41.543Z,101105.00
2022-09-11T20:12:00.471Z,101102.00
2022-09-11T20:14:31.232Z,101092.00
2022-09-11T20:17:00.889Z,101102.00
2022-09-11T20:19:29.214Z,101101.00
2022-09-11T20:21:57.209Z,101101.00
2022-09-11T20:24:25.318Z,101105.00
2022-09-11T20:26:54.646Z,101110.00
2022-09-11T20:29:22.730Z,101118.00
2022-09-11T20:31:54.011Z,101111.00
2022-09-11T20:34:25.659Z,101118.00
2022-09-11T20:36:53.613Z,101112.00
2022-09-11T20:39:23.186Z,101113.00
2022-09-11T20:41:51.161Z,101090.00
2022-09-11T20:44:19.337Z,101108.00
2022-09-11T20:46:48.210Z,101110.00
2022-09-11T20:49:17.604Z,101110.00
2022-09-11T20:51:45.596Z,101103.00
2022-09-11T20:54:13.792Z,101105.00
2022-09-11T20:56:41.902Z,101107.00
2022-09-11T20:59:09.837Z,101111.00
